Time;durP1;ratioP1;P1;durP2;ratioP2;P2;SDS_P1;SDS_P2;PMS_P1;PMS_P2;Temp;Humidity;BMP_temperature;BMP_pressure;BME280_temperature;BME280_humidity;BME280_pressure;Samples;Min_cycle;Max_cycle;Signal;HPM_P1;HPM_P2
2021/08/01 00:02:20;;;;;;;12.80;6.80;;;;;;;25.55;57.06;99045.94;4955647;29;20512;-90
2021/08/01 00:04:47;;;;;;;9.40;6.03;;;;;;;25.49;57.52;99028.88;4956117;29;20050;-90
2021/08/01 00:07:14;;;;;;;12.70;6.22;;;;;;;25.33;58.01;99037.25;4936778;29;20048;-88
2021/08/01 00:09:41;;;;;;;7.28;6.50;;;;;;;25.32;58.23;99046.28;4936641;29;20077;-89
2021/08/01 00:12:08;;;;;;;14.27;6.80;;;;;;;25.37;57.91;99033.16;4936395;29;20144;-90
2021/08/01 00:14:35;;;;;;;11.40;7.35;;;;;;;25.32;58.19;99022.28;4950231;29;20035;-90
2021/08/01 00:17:02;;;;;;;13.60;6.80;;;;;;;25.35;58.12;99016.53;4955770;29;20047;-90
2021/08/01 00:19:29;;;;;;;8.20;7.35;;;;;;;25.54;57.78;99023.75;4955201;29;20071;-91
2021/08/01 00:21:55;;;;;;;10.68;5.82;;;;;;;25.44;57.81;99025.19;4938448;29;20043;-90
2021/08/01 00:24:22;;;;;;;11.57;7.07;;;;;;;25.41;58.00;99026.41;4955077;29;20051;-87
2021/08/01 00:26:49;;;;;;;14.70;7.93;;;;;;;25.27;58.81;99022.06;4955287;29;20043;-86
2021/08/01 00:29:16;;;;;;;11.05;7.50;;;;;;;25.33;58.96;99026.59;4955124;29;20053;-85
2021/08/01 00:31:42;;;;;;;11.88;7.00;;;;;;;25.18;59.37;99039.25;4955182;29;20477;-84
2021/08/01 00:34:09;;;;;;;9.65;7.07;;;;;;;25.16;59.60;99046.66;4954455;29;20122;-85
2021/08/01 00:36:36;;;;;;;8.57;6.97;;;;;;;25.10;60.21;99052.78;4955058;29;20372;-85
2021/08/01 00:39:02;;;;;;;16.50;7.00;;;;;;;24.88;60.71;99044.88;4954962;29;20039;-84
2021/08/01 00:41:32;;;;;;;7.78;6.75;;;;;;;24.77;61.28;99046.25;4937589;29;20039;-85
2021/08/01 00:43:59;;;;;;;9.80;6.93;;;;;;;24.70;61.54;99060.53;4955371;29;20051;-85
2021/08/01 00:46:26;;;;;;;8.63;7.47;;;;;;;24.72;61.83;99039.88;4954514;29;20109;-85
2021/08/01 00:48:53;;;;;;;8.00;6.93;;;;;;;24.80;61.70;99029.84;4937714;29;20070;-85
2021/08/01 00:51:21;;;;;;;8.20;7.40;;;;;;;24.76;62.20;99035.75;4937219;29;20043;-85
2021/08/01 00:53:48;;;;;;;8.57;7.47;;;;;;;24.55;62.85;99053.50;4955022;29;20044;-85
2021/08/01 00:56:16;;;;;;;8.27;6.85;;;;;;;24.53;63.11;99050.19;4937099;29;20143;-90
2021/08/01 00:58:43;;;;;;;12.00;8.23;;;;;;;24.75;62.52;99044.78;4954729;29;20055;-90
2021/08/01 01:01:15;;;;;;;13.98;7.88;;;;;;;24.59;62.96;99040.59;4937096;29;20137;-91
2021/08/01 01:03:50;;;;;;;12.95;8.95;;;;;;;24.36;64.07;99030.22;4955020;29;20380;-91
2021/08/01 01:06:30;;;;;;;11.20;8.65;;;;;;;24.40;64.12;99036.81;4954738;29;20039;-88
2021/08/01 01:09:08;;;;;;;9.38;7.53;;;;;;;24.30;64.50;99068.25;4918474;29;20043;-89
2021/08/01 01:12:12;;;;;;;8.65;7.65;;;;;;;24.38;64.46;99052.13;4930094;29;20088;-86
2021/08/01 01:14:52;;;;;;;10.82;8.30;;;;;;;24.20;64.80;99025.16;4933525;29;20040;-88
2021/08/01 01:17:30;;;;;;;11.13;7.57;;;;;;;24.14;64.96;99026.75;4947126;29;20050;-88
2021/08/01 01:20:29;;;;;;;11.05;7.93;;;;;;;24.18;64.94;99056.47;4954570;29;20573;-89
2021/08/01 01:23:30;;;;;;;10.30;8.27;;;;;;;24.27;64.54;99068.63;4922283;29;20067;-88
2021/08/01 01:26:34;;;;;;;12.50;8.13;;;;;;;24.26;64.30;99059.00;4905768;29;20061;-89
2021/08/01 01:29:29;;;;;;;18.38;8.25;;;;;;;24.28;63.90;99033.81;4954130;29;20050;-88
2021/08/01 01:32:00;;;;;;;12.82;8.75;;;;;;;24.19;64.47;99044.81;4937185;29;20051;-88
2021/08/01 01:34:36;;;;;;;15.60;9.18;;;;;;;24.10;64.82;99043.31;4953991;29;20512;-88
2021/08/01 01:37:06;;;;;;;10.40;7.30;;;;;;;24.21;64.01;99048.09;4937262;29;20539;-87
2021/08/01 01:39:39;;;;;;;13.50;9.43;;;;;;;24.15;64.21;99035.56;4936917;29;20047;-85
2021/08/01 01:42:28;;;;;;;9.65;8.10;;;;;;;24.10;64.55;99022.00;4936829;29;20486;-86
2021/08/01 01:45:00;;;;;;;12.23;8.35;;;;;;;24.29;63.74;99016.84;4936654;29;20052;-86
2021/08/01 01:47:32;;;;;;;11.65;8.38;;;;;;;24.33;63.47;99027.91;4937089;29;20069;-86
2021/08/01 01:50:00;;;;;;;10.23;7.53;;;;;;;24.35;63.53;99043.72;4954052;29;20555;-88
2021/08/01 01:52:29;;;;;;;13.18;7.95;;;;;;;24.15;64.47;99054.19;4937381;29;20070;-89
2021/08/01 01:55:09;;;;;;;10.98;8.18;;;;;;;24.15;64.49;99051.53;4937100;29;20094;-84
2021/08/01 01:57:41;;;;;;;10.40;7.57;;;;;;;24.13;64.18;99038.44;4936349;29;20058;-85
2021/08/01 02:00:08;;;;;;;11.50;7.72;;;;;;;24.01;64.41;99040.78;4937028;29;20055;-85
2021/08/01 02:02:44;;;;;;;9.95;7.00;;;;;;;23.92;64.48;99033.13;4953589;29;20044;-85
2021/08/01 02:05:37;;;;;;;10.07;8.00;;;;;;;23.99;64.57;99029.50;4924559;29;20051;-85
2021/08/01 02:08:22;;;;;;;11.73;7.63;;;;;;;24.00;64.63;99023.16;4953774;29;20098;-85
2021/08/01 02:11:09;;;;;;;10.63;7.20;;;;;;;23.95;64.53;99009.59;4954295;29;20070;-85
2021/08/01 02:14:12;;;;;;;7.38;6.63;;;;;;;23.97;64.56;98993.44;4938320;29;20039;-85
2021/08/01 02:16:43;;;;;;;8.47;7.27;;;;;;;23.91;64.31;99008.34;4940319;29;20526;-85
2021/08/01 02:19:12;;;;;;;9.68;7.03;;;;;;;24.01;64.26;99006.16;4940044;29;20491;-84
2021/08/01 02:21:45;;;;;;;10.35;6.97;;;;;;;24.01;63.85;99000.84;4940375;29;20050;-85
2021/08/01 02:24:13;;;;;;;12.15;6.57;;;;;;;23.98;64.18;99003.91;4939925;29;20126;-84
2021/08/01 02:26:44;;;;;;;10.60;6.78;;;;;;;24.02;63.73;99001.66;4940363;29;20035;-89
2021/08/01 02:29:13;;;;;;;10.55;6.90;;;;;;;24.22;63.10;98996.50;4940489;29;20071;-88
2021/08/01 02:31:42;;;;;;;8.77;6.13;;;;;;;24.21;63.11;98985.00;4957512;29;20051;-89
2021/08/01 02:34:10;;;;;;;13.40;6.45;;;;;;;24.12;62.99;98980.84;4957004;29;20418;-83
2021/08/01 02:37:02;;;;;;;10.27;5.80;;;;;;;24.16;62.79;98960.00;4957677;29;20091;-89
2021/08/01 02:39:31;;;;;;;11.85;5.97;;;;;;;24.01;62.87;98950.25;4920855;29;20388;-89
2021/08/01 02:42:01;;;;;;;7.88;5.90;;;;;;;24.07;62.88;98945.19;4936952;29;20044;-90
2021/08/01 02:44:31;;;;;;;5.88;5.28;;;;;;;24.15;62.23;98958.34;4937987;29;20436;-90
2021/08/01 02:46:59;;;;;;;7.43;6.00;;;;;;;24.24;61.97;98947.38;4938945;29;20122;-90
2021/08/01 02:49:36;;;;;;;8.43;5.97;;;;;;;24.13;62.13;98945.25;4939906;29;20407;-87
2021/08/01 02:52:04;;;;;;;8.60;5.25;;;;;;;24.11;61.98;98941.13;4956817;29;20390;-88
2021/08/01 02:54:35;;;;;;;8.50;6.15;;;;;;;24.08;62.03;98915.72;4957323;29;20058;-88
2021/08/01 02:57:05;;;;;;;6.53;5.32;;;;;;;24.12;61.94;98889.53;4957122;29;20054;-89
2021/08/01 02:59:33;;;;;;;5.55;4.90;;;;;;;24.04;62.23;98899.31;4957059;29;20070;-88
2021/08/01 03:02:06;;;;;;;6.60;5.80;;;;;;;24.10;62.09;98900.38;4939272;29;20502;-90
2021/08/01 03:04:40;;;;;;;9.38;5.07;;;;;;;23.98;62.27;98910.75;4939956;29;20043;-91
2021/08/01 03:07:08;;;;;;;10.57;5.50;;;;;;;24.04;62.22;98923.28;4956712;29;20035;-89
2021/08/01 03:09:36;;;;;;;8.38;5.22;;;;;;;24.07;62.31;98902.59;4939722;29;20036;-89
2021/08/01 03:12:11;;;;;;;8.25;5.90;;;;;;;23.91;62.75;98888.56;4939106;29;20414;-92
2021/08/01 03:14:41;;;;;;;8.98;5.40;;;;;;;23.84;62.77;98887.72;4957127;29;20047;-92
2021/08/01 03:17:08;;;;;;;13.60;5.93;;;;;;;23.88;62.90;98894.31;4956567;29;20046;-90
2021/08/01 03:19:39;;;;;;;9.90;6.18;;;;;;;23.73;63.18;98893.59;4956713;29;20047;-90
2021/08/01 03:22:08;;;;;;;8.98;6.15;;;;;;;23.76;63.63;98896.69;4939911;29;20502;-92
2021/08/01 03:24:39;;;;;;;10.30;6.78;;;;;;;23.92;63.07;98886.75;4937924;29;20051;-90
2021/08/01 03:27:11;;;;;;;6.72;5.97;;;;;;;24.09;62.64;98890.75;4956942;29;20102;-90
2021/08/01 03:29:38;;;;;;;14.13;6.75;;;;;;;24.21;62.08;98914.97;4956770;29;20040;-90
2021/08/01 03:32:12;;;;;;;11.02;6.90;;;;;;;24.27;62.03;98924.84;4939224;29;20507;-92
2021/08/01 03:34:39;;;;;;;11.25;7.30;;;;;;;24.40;62.24;98911.63;4956230;29;20054;-92
2021/08/01 03:37:06;;;;;;;6.60;5.93;;;;;;;24.61;61.22;98900.03;4956417;29;20124;-89
2021/08/01 03:39:51;;;;;;;7.60;6.18;;;;;;;24.31;61.42;98904.78;4956247;29;20162;-90
2021/08/01 03:42:21;;;;;;;11.13;6.00;;;;;;;24.33;61.94;98915.22;4956306;29;20541;-90
2021/08/01 03:44:48;;;;;;;8.45;6.22;;;;;;;24.03;62.79;98913.66;4955768;29;20126;-90
2021/08/01 03:47:14;;;;;;;13.85;6.43;;;;;;;24.17;62.37;98885.25;4956053;29;20502;-90
2021/08/01 03:49:45;;;;;;;7.72;6.57;;;;;;;24.21;62.02;98872.38;4956035;29;20406;-89
2021/08/01 03:52:12;;;;;;;7.70;5.70;;;;;;;23.97;64.09;98876.31;4956177;29;20056;-89
2021/08/01 03:54:38;;;;;;;7.63;6.32;;;;;;;23.61;65.23;98884.47;4955976;29;20088;-91
2021/08/01 03:57:06;;;;;;;8.68;5.85;;;;;;;23.74;64.50;98877.41;4955949;29;20048;-91
2021/08/01 03:59:35;;;;;;;6.90;6.15;;;;;;;23.79;63.87;98879.50;4956842;28;20384;-89
2021/08/01 04:02:03;;;;;;;12.70;6.30;;;;;;;23.89;63.93;98885.28;4955400;28;20054;-90
2021/08/01 04:04:30;;;;;;;6.80;5.10;;;;;;;23.74;64.75;98897.88;4956035;29;20048;-89
2021/08/01 04:06:57;;;;;;;7.05;6.35;;;;;;;23.44;65.86;98890.06;4955863;29;20050;-90
2021/08/01 04:09:24;;;;;;;8.60;5.90;;;;;;;23.30;66.31;98884.84;4956670;29;20043;-90
2021/08/01 04:11:50;;;;;;;11.70;6.07;;;;;;;23.25;66.51;98874.75;4955315;29;20387;-91
2021/08/01 04:14:17;;;;;;;17.58;6.85;;;;;;;23.38;66.14;98887.34;4955863;28;20043;-90
2021/08/01 04:16:44;;;;;;;14.65;8.25;;;;;;;23.02;67.30;98887.44;4955631;29;20494;-91
2021/08/01 04:19:13;;;;;;;9.77;8.55;;;;;;;23.14;67.43;98869.97;4955684;29;20051;-90
2021/08/01 04:21:43;;;;;;;11.50;7.53;;;;;;;23.06;67.60;98873.56;4938327;29;20097;-92
2021/08/01 04:24:11;;;;;;;10.48;8.50;;;;;;;23.11;67.56;98863.19;4955237;29;20106;-90
2021/08/01 04:26:38;;;;;;;8.52;7.72;;;;;;;23.25;67.09;98856.16;4938106;29;20383;-91
2021/08/01 04:29:06;;;;;;;10.55;7.28;;;;;;;23.13;67.12;98857.69;4955836;29;20047;-89
2021/08/01 04:31:33;;;;;;;12.63;6.50;;;;;;;22.98;67.97;98868.38;4958606;29;20844;-88
2021/08/01 04:33:59;;;;;;;9.00;8.10;;;;;;;23.05;67.47;98879.88;4959467;29;20078;-87
2021/08/01 04:36:26;;;;;;;9.60;7.07;;;;;;;23.17;66.73;98888.16;4954718;28;20047;-89
2021/08/01 04:38:53;;;;;;;9.65;7.57;;;;;;;23.20;66.78;98885.97;4931148;29;20058;-88
2021/08/01 04:41:20;;;;;;;8.38;5.93;;;;;;;23.15;66.95;98882.25;4950260;29;20039;-88
2021/08/01 04:43:46;;;;;;;8.80;6.78;;;;;;;23.05;67.63;98876.41;4955388;29;20454;-88
2021/08/01 04:46:13;;;;;;;8.75;7.85;;;;;;;23.12;67.21;98882.63;4942103;29;20050;-87
2021/08/01 04:48:40;;;;;;;8.55;6.43;;;;;;;23.16;67.19;98889.19;4961553;29;20067;-86
2021/08/01 04:51:07;;;;;;;10.13;6.43;;;;;;;23.19;67.22;98879.00;4946463;28;20051;-86
2021/08/01 04:53:35;;;;;;;11.20;7.10;;;;;;;23.31;66.95;98879.31;4950539;29;20051;-87
2021/08/01 04:56:06;;;;;;;7.47;6.40;;;;;;;23.27;66.88;98862.09;4930711;29;20115;-86
2021/08/01 04:58:33;;;;;;;10.98;6.40;;;;;;;23.47;66.30;98854.28;4949470;29;20048;-89
2021/08/01 05:01:00;;;;;;;15.02;6.32;;;;;;;24.02;64.81;98872.09;4950106;29;20047;-91
2021/08/01 05:03:27;;;;;;;10.38;7.20;;;;;;;23.94;64.63;98872.22;4952202;29;20043;-90
2021/08/01 05:05:53;;;;;;;8.75;6.75;;;;;;;24.14;64.15;98876.84;4951731;29;20043;-89
2021/08/01 05:08:20;;;;;;;14.32;9.60;;;;;;;24.43;62.85;98862.47;4948356;29;20074;-89
2021/08/01 05:10:47;;;;;;;14.43;8.65;;;;;;;24.38;63.75;98864.88;4954254;29;20032;-89
2021/08/01 05:13:14;;;;;;;9.38;8.02;;;;;;;24.47;63.92;98863.72;4953790;28;20062;-85
2021/08/01 05:15:41;;;;;;;8.32;7.45;;;;;;;24.44;64.01;98856.91;4951064;29;20039;-88
2021/08/01 05:18:08;;;;;;;10.98;8.35;;;;;;;24.66;63.55;98859.44;4953637;29;20506;-89
2021/08/01 05:20:40;;;;;;;12.38;7.70;;;;;;;24.66;63.25;98843.47;4954156;29;20040;-86
2021/08/01 05:23:07;;;;;;;8.77;7.95;;;;;;;24.84;62.26;98838.38;4953739;29;20039;-86
2021/08/01 05:25:34;;;;;;;11.13;7.55;;;;;;;25.29;60.76;98843.97;4934745;29;20039;-86
2021/08/01 05:28:00;;;;;;;10.05;8.63;;;;;;;24.98;62.13;98839.22;4946448;29;20043;-88
2021/08/01 05:30:27;;;;;;;12.90;8.65;;;;;;;24.91;62.43;98833.88;4953077;29;20123;-87
2021/08/01 05:32:54;;;;;;;9.85;8.23;;;;;;;25.05;62.30;98832.88;4950568;29;20048;-87
2021/08/01 05:35:21;;;;;;;14.27;8.50;;;;;;;24.81;62.83;98828.13;4952099;29;20498;-87
2021/08/01 05:37:47;;;;;;;10.82;8.98;;;;;;;24.70;63.29;98813.53;4952273;29;20043;-86
2021/08/01 05:40:14;;;;;;;11.05;7.53;;;;;;;25.07;62.10;98814.03;4951627;29;20063;-86
2021/08/01 05:42:41;;;;;;;17.65;9.13;;;;;;;25.07;62.05;98825.50;4950571;29;20035;-87
2021/08/01 05:45:08;;;;;;;11.85;8.18;;;;;;;24.97;62.61;98833.06;4950278;29;20043;-87
2021/08/01 05:47:38;;;;;;;12.10;9.55;;;;;;;25.01;62.55;98826.31;4949041;28;20102;-87
2021/08/01 05:50:08;;;;;;;17.77;12.43;;;;;;;24.58;64.05;98827.69;4934400;29;20137;-87
2021/08/01 05:52:36;;;;;;;16.27;11.60;;;;;;;24.81;63.16;98826.28;4952419;29;20047;-92
2021/08/01 05:55:04;;;;;;;20.55;10.95;;;;;;;24.89;62.97;98835.13;4955743;29;20454;-90
2021/08/01 05:57:31;;;;;;;15.60;10.68;;;;;;;24.83;63.03;98845.56;4955824;29;20107;-91
2021/08/01 05:59:57;;;;;;;14.10;11.95;;;;;;;24.96;63.33;98839.41;4953727;28;20043;-94
2021/08/01 06:02:24;;;;;;;13.13;11.93;;;;;;;24.93;63.30;98828.34;4941586;29;20410;-92
2021/08/01 06:04:51;;;;;;;11.70;10.52;;;;;;;25.25;62.22;98850.78;4938931;29;20040;-82
2021/08/01 06:07:18;;;;;;;14.68;12.50;;;;;;;24.93;63.35;98850.50;4951070;29;20039;-90
2021/08/01 06:09:47;;;;;;;13.10;11.73;;;;;;;25.11;62.52;98835.78;4953567;29;20040;-87
2021/08/01 06:12:16;;;;;;;12.85;11.55;;;;;;;25.20;62.21;98839.91;4954469;28;20047;-87
2021/08/01 06:14:48;;;;;;;15.18;12.20;;;;;;;24.52;64.01;98846.09;4954258;29;20514;-86
2021/08/01 06:17:15;;;;;;;14.13;11.52;;;;;;;24.46;64.25;98857.56;4951025;29;20098;-89
2021/08/01 06:19:42;;;;;;;17.08;11.88;;;;;;;24.23;65.71;98865.00;4948023;29;20046;-84
2021/08/01 06:22:09;;;;;;;16.25;12.40;;;;;;;24.32;65.25;98863.81;4954877;29;20043;-84
2021/08/01 06:24:36;;;;;;;16.02;13.30;;;;;;;24.56;64.65;98862.50;4953819;29;20096;-90
2021/08/01 06:27:04;;;;;;;19.02;13.60;;;;;;;24.54;64.76;98865.34;4953300;29;20167;-85
2021/08/01 06:29:31;;;;;;;20.02;14.88;;;;;;;24.46;65.06;98864.72;4953684;29;20043;-82
2021/08/01 06:31:58;;;;;;;15.63;13.63;;;;;;;24.64;64.99;98864.97;4951903;29;20055;-91
2021/08/01 06:34:24;;;;;;;22.33;13.07;;;;;;;24.77;64.46;98874.88;4948481;29;20411;-89
2021/08/01 06:36:51;;;;;;;14.50;12.32;;;;;;;24.60;65.38;98870.91;4953000;29;20054;-91
2021/08/01 06:39:18;;;;;;;15.85;12.82;;;;;;;25.02;64.03;98870.59;4953156;29;20050;-80
2021/08/01 06:41:45;;;;;;;18.85;11.00;;;;;;;25.10;62.90;98872.28;4950885;29;20041;-82
2021/08/01 06:44:12;;;;;;;10.65;9.30;;;;;;;25.26;62.38;98879.88;4954228;29;20565;-81
2021/08/01 06:46:38;;;;;;;15.20;11.48;;;;;;;25.51;61.19;98880.06;4952044;29;20046;-81
2021/08/01 06:49:05;;;;;;;14.48;10.95;;;;;;;25.51;61.06;98880.06;4950303;29;20075;-80
2021/08/01 06:51:36;;;;;;;12.60;9.40;;;;;;;25.76;60.07;98876.81;4956313;29;20047;-81
2021/08/01 06:54:03;;;;;;;10.80;9.65;;;;;;;25.56;60.59;98898.97;4956530;29;20106;-82
2021/08/01 06:56:31;;;;;;;21.30;10.07;;;;;;;25.33;62.02;98909.22;4956257;29;20043;-81
2021/08/01 06:58:57;;;;;;;10.27;9.18;;;;;;;25.71;60.63;98905.94;4956413;28;20043;-82
2021/08/01 07:01:24;;;;;;;18.45;10.18;;;;;;;25.83;60.01;98909.66;4938471;29;20046;-82
2021/08/01 07:03:51;;;;;;;17.90;12.23;;;;;;;25.82;60.39;98916.00;4956702;29;20453;-80
2021/08/01 07:06:18;;;;;;;15.07;13.20;;;;;;;25.54;61.91;98916.22;4955594;28;20094;-80
2021/08/01 07:08:44;;;;;;;22.65;15.15;;;;;;;25.70;61.23;98915.78;4955882;28;20098;-80
2021/08/01 07:11:11;;;;;;;16.63;13.45;;;;;;;25.23;63.19;98909.63;4954514;28;20047;-78
2021/08/01 07:13:38;;;;;;;15.73;13.27;;;;;;;25.48;62.63;98890.38;4950128;28;20051;-92
2021/08/01 07:16:05;;;;;;;18.75;12.02;;;;;;;25.75;61.29;98884.00;4929305;28;20039;-91
2021/08/01 07:18:32;;;;;;;15.85;13.35;;;;;;;25.57;62.17;98889.94;4952395;28;20039;-85
2021/08/01 07:20:59;;;;;;;20.02;12.95;;;;;;;25.59;62.52;98898.56;4955982;29;20047;-90
2021/08/01 07:23:27;;;;;;;20.63;14.75;;;;;;;25.23;63.88;98908.81;4951181;29;20047;-85
2021/08/01 07:25:54;;;;;;;44.72;14.20;;;;;;;24.78;65.22;98916.47;4954133;29;20051;-86
2021/08/01 07:28:20;;;;;;;13.82;12.35;;;;;;;24.79;65.19;98912.78;4946171;28;20039;-84
2021/08/01 07:30:48;;;;;;;15.18;12.93;;;;;;;25.04;64.30;98910.41;4942118;28;20560;-87
2021/08/01 07:33:15;;;;;;;16.60;13.63;;;;;;;25.41;62.83;98901.03;4939444;28;20048;-87
2021/08/01 07:35:43;;;;;;;17.17;12.32;;;;;;;25.65;62.22;98902.25;4941191;28;20035;-85
2021/08/01 07:38:09;;;;;;;18.42;14.35;;;;;;;25.55;62.26;98892.00;4939954;28;20043;-91
2021/08/01 07:40:36;;;;;;;15.23;13.82;;;;;;;25.39;63.29;98897.72;4949374;28;20394;-89
2021/08/01 07:43:04;;;;;;;18.15;11.85;;;;;;;25.80;62.13;98912.75;4941190;28;20035;-86
2021/08/01 07:45:33;;;;;;;16.95;13.68;;;;;;;25.38;63.76;98936.13;4947397;28;20046;-90
2021/08/01 07:48:01;;;;;;;18.55;14.07;;;;;;;25.38;64.12;98938.78;4951446;28;20039;-86
2021/08/01 07:50:29;;;;;;;16.40;14.70;;;;;;;25.63;63.44;98946.19;4952415;29;20406;-84
2021/08/01 07:52:56;;;;;;;18.13;15.38;;;;;;;25.67;62.85;98948.22;4949668;29;20043;-79
2021/08/01 07:55:23;;;;;;;16.42;14.30;;;;;;;25.38;64.51;98959.31;4953197;28;20491;-78
2021/08/01 07:57:50;;;;;;;16.95;13.88;;;;;;;25.24;64.92;98963.78;4950435;28;20489;-76
2021/08/01 08:00:17;;;;;;;18.85;13.95;;;;;;;25.48;63.96;98965.88;4951434;28;20058;-77
2021/08/01 08:02:45;;;;;;;17.50;14.05;;;;;;;25.50;64.01;98969.16;4951962;28;20592;-76
2021/08/01 08:05:13;;;;;;;16.35;14.68;;;;;;;25.23;65.52;98968.28;4951095;28;20399;-76
2021/08/01 08:07:40;;;;;;;15.48;13.88;;;;;;;25.67;63.90;98974.09;4948839;28;20094;-76
2021/08/01 08:10:09;;;;;;;15.38;13.77;;;;;;;25.11;66.42;98969.91;4949532;28;20042;-76
2021/08/01 08:12:36;;;;;;;18.42;14.90;;;;;;;24.78;68.50;98981.25;4950039;28;20043;-77
2021/08/01 08:15:06;;;;;;;17.42;14.48;;;;;;;24.78;70.23;98980.44;4951148;28;20043;-76
2021/08/01 08:17:33;;;;;;;18.00;15.30;;;;;;;24.95;70.60;98987.06;4948673;28;20031;-77
2021/08/01 08:20:06;;;;;;;18.42;16.30;;;;;;;24.85;75.33;98986.63;4951176;28;20098;-77
2021/08/01 08:22:33;;;;;;;19.90;15.07;;;;;;;24.80;76.27;98994.38;4952545;29;20050;-77
2021/08/01 08:25:01;;;;;;;17.50;15.38;;;;;;;24.69;79.09;99005.59;4952896;29;20049;-76
2021/08/01 08:27:28;;;;;;;23.42;16.45;;;;;;;24.72;77.71;99003.38;4950976;28;20063;-78
2021/08/01 08:29:54;;;;;;;18.88;15.20;;;;;;;24.66;78.41;99006.00;4949737;28;20047;-76
2021/08/01 08:32:21;;;;;;;17.55;15.05;;;;;;;24.64;77.33;99000.88;4950289;28;20043;-77
2021/08/01 08:34:48;;;;;;;18.45;15.00;;;;;;;24.58;79.37;99016.81;4951739;28;20043;-77
2021/08/01 08:37:15;;;;;;;18.58;11.73;;;;;;;24.41;76.36;99018.97;4951680;29;20051;-79
2021/08/01 08:39:42;;;;;;;14.82;9.43;;;;;;;24.25;75.32;99018.22;4952330;29;20050;-78
2021/08/01 08:42:09;;;;;;;10.27;7.82;;;;;;;24.47;72.41;99021.69;4936025;29;20098;-78
2021/08/01 08:44:36;;;;;;;11.10;7.32;;;;;;;24.27;71.55;99037.50;4952245;28;20447;-79
2021/08/01 08:47:03;;;;;;;9.98;7.28;;;;;;;24.02;74.03;99034.44;4952777;29;20062;-78
2021/08/01 08:49:35;;;;;;;8.20;7.40;;;;;;;23.91;72.82;99029.63;4950026;29;20141;-77
2021/08/01 08:52:06;;;;;;;7.28;6.40;;;;;;;23.96;71.96;99027.22;4951113;29;20132;-76
2021/08/01 08:54:43;;;;;;;10.10;6.82;;;;;;;23.99;73.08;99024.19;4949747;28;20047;-78
2021/08/01 08:57:25;;;;;;;7.70;5.70;;;;;;;23.82;73.32;99009.50;4950089;28;20051;-78
2021/08/01 09:00:07;;;;;;;6.20;4.97;;;;;;;23.79;73.77;99013.38;4948960;28;20445;-77
2021/08/01 09:02:34;;;;;;;12.07;4.95;;;;;;;23.90;72.96;99009.34;4948395;28;20043;-79
2021/08/01 09:05:04;;;;;;;6.05;5.38;;;;;;;23.89;71.56;99010.38;4934443;28;20121;-77
2021/08/01 09:07:30;;;;;;;7.97;4.97;;;;;;;24.12;69.12;99006.66;4950467;28;20149;-79
2021/08/01 09:09:57;;;;;;;6.03;4.40;;;;;;;24.21;69.95;98992.19;4950092;28;20051;-77
2021/08/01 09:12:24;;;;;;;10.75;5.22;;;;;;;24.56;69.80;98980.56;4934937;28;20069;-78
2021/08/01 09:15:09;;;;;;;5.30;3.85;;;;;;;24.96;67.65;98975.38;4949212;28;20094;-79
2021/08/01 09:17:37;;;;;;;4.90;4.40;;;;;;;25.14;64.91;98964.19;4950871;28;20067;-79
2021/08/01 09:20:19;;;;;;;4.90;4.03;;;;;;;25.31;64.79;98967.31;4950289;28;20043;-78
2021/08/01 09:23:13;;;;;;;6.75;4.05;;;;;;;25.44;64.03;98967.31;4947656;28;20043;-78
2021/08/01 09:25:43;;;;;;;5.93;5.07;;;;;;;25.66;63.52;98961.78;4946450;28;20055;-78
2021/08/01 09:28:15;;;;;;;4.70;3.95;;;;;;;25.90;62.36;98968.38;4950617;28;20402;-77
2021/08/01 09:30:48;;;;;;;5.65;4.32;;;;;;;25.92;60.99;98966.31;4949532;28;20066;-76
2021/08/01 09:33:29;;;;;;;4.35;3.95;;;;;;;25.95;60.23;98968.59;4948541;28;20494;-78
2021/08/01 09:36:24;;;;;;;4.40;3.60;;;;;;;25.89;59.58;98972.06;4948606;28;20134;-79
2021/08/01 09:38:59;;;;;;;8.02;3.45;;;;;;;25.91;60.21;98976.19;4946882;28;20044;-79
2021/08/01 09:41:32;;;;;;;5.30;3.83;;;;;;;25.71;60.50;98986.00;4944701;28;20074;-79
2021/08/01 09:44:01;;;;;;;5.35;3.95;;;;;;;25.76;59.64;98975.56;4948108;28;20044;-81
2021/08/01 09:46:36;;;;;;;4.32;3.47;;;;;;;25.74;59.68;98990.94;4951263;28;20035;-80
2021/08/01 09:49:15;;;;;;;6.43;4.57;;;;;;;25.68;60.23;98992.59;4949191;29;20104;-79
2021/08/01 09:51:47;;;;;;;9.40;4.90;;;;;;;25.78;58.93;98981.50;4948025;29;20043;-85
2021/08/01 09:54:16;;;;;;;3.90;3.50;;;;;;;25.74;59.04;98980.28;4949563;29;20073;-82
2021/08/01 09:56:59;;;;;;;10.45;4.10;;;;;;;25.69;58.84;98988.88;4951688;29;20122;-83
2021/08/01 09:59:27;;;;;;;6.13;4.32;;;;;;;25.54;59.60;98991.75;4952630;28;20418;-82
2021/08/01 10:02:02;;;;;;;6.90;4.53;;;;;;;25.56;59.28;98989.69;4953030;28;20093;-83
2021/08/01 10:04:42;;;;;;;7.57;3.88;;;;;;;25.55;59.50;98993.38;4934684;29;20447;-81
2021/08/01 10:07:14;;;;;;;7.07;3.78;;;;;;;25.49;59.83;99007.53;4953851;28;20059;-80
2021/08/01 10:09:45;;;;;;;5.82;5.22;;;;;;;25.42;59.94;99014.72;4953348;29;20035;-79
2021/08/01 10:12:13;;;;;;;8.43;5.40;;;;;;;25.16;60.72;99022.66;4953272;28;20513;-84
2021/08/01 10:14:42;;;;;;;7.47;4.65;;;;;;;24.91;62.86;99038.31;4951747;28;20051;-83
2021/08/01 10:17:09;;;;;;;4.70;3.70;;;;;;;24.56;64.56;99030.34;4952248;28;20106;-84
2021/08/01 10:19:36;;;;;;;6.90;3.88;;;;;;;23.89;67.47;99034.31;4952250;29;20055;-82
2021/08/01 10:22:04;;;;;;;5.28;4.00;;;;;;;23.00;72.24;99023.97;4952581;28;20086;-83
2021/08/01 10:24:31;;;;;;;5.18;4.47;;;;;;;23.01;74.11;99032.78;4936021;29;20039;-83
2021/08/01 10:27:08;;;;;;;8.27;5.68;;;;;;;23.00;74.16;99023.97;4952757;28;20094;-88
2021/08/01 10:29:51;;;;;;;7.15;4.85;;;;;;;23.30;73.60;99018.59;4953551;28;20051;-82
2021/08/01 10:32:20;;;;;;;11.52;7.22;;;;;;;23.06;76.12;99009.09;4948344;28;20384;-78
2021/08/01 10:34:58;;;;;;;9.15;6.57;;;;;;;23.05;75.55;98999.50;4954992;28;20043;-77
2021/08/01 10:37:37;;;;;;;8.75;6.50;;;;;;;23.45;73.18;98990.13;4953249;28;20106;-77
2021/08/01 10:40:07;;;;;;;10.98;6.93;;;;;;;23.36;75.18;98987.75;4956254;28;20062;-81
2021/08/01 10:42:37;;;;;;;5.68;5.00;;;;;;;23.29;75.70;98990.34;4956282;28;20118;-82
2021/08/01 10:45:05;;;;;;;6.05;3.95;;;;;;;23.61;75.18;98981.06;4954670;28;20051;-79
2021/08/01 10:47:33;;;;;;;6.32;5.65;;;;;;;24.11;74.38;98984.53;4955918;28;20126;-82
2021/08/01 10:50:06;;;;;;;6.18;4.55;;;;;;;24.17;73.13;98988.25;4954188;28;20079;-86
2021/08/01 10:52:35;;;;;;;5.50;4.15;;;;;;;24.62;72.95;98989.59;4955796;28;20039;-89
2021/08/01 10:55:05;;;;;;;7.22;4.40;;;;;;;24.65;70.88;98991.84;4956021;28;20102;-87
2021/08/01 10:57:33;;;;;;;8.93;5.00;;;;;;;24.61;71.06;98995.09;4939389;29;20521;-84
2021/08/01 11:00:05;;;;;;;6.15;4.05;;;;;;;24.95;70.43;98987.06;4955653;29;20051;-84
2021/08/01 11:02:34;;;;;;;5.10;3.63;;;;;;;24.88;70.48;98983.56;4955259;29;20043;-83
2021/08/01 11:05:35;;;;;;;4.90;3.60;;;;;;;25.17;68.39;98979.78;4955257;29;20047;-83
2021/08/01 11:08:02;;;;;;;4.63;3.50;;;;;;;25.42;67.08;98977.38;4955311;29;20098;-84
2021/08/01 11:10:29;;;;;;;4.68;3.97;;;;;;;25.40;65.94;98976.72;4955016;29;20090;-83
2021/08/01 11:12:56;;;;;;;4.78;3.85;;;;;;;25.44;65.19;98975.31;4955184;29;20050;-84
2021/08/01 11:15:47;;;;;;;4.72;3.50;;;;;;;25.99;63.74;98965.28;4956127;29;20058;-85
2021/08/01 11:18:14;;;;;;;6.97;4.07;;;;;;;26.10;62.29;98962.00;4937982;29;20047;-84
2021/08/01 11:20:46;;;;;;;3.25;2.95;;;;;;;26.01;58.26;98954.41;4937477;29;20444;-85
2021/08/01 11:23:13;;;;;;;3.67;3.28;;;;;;;26.38;60.97;98945.69;4937720;29;20063;-84
2021/08/01 11:25:42;;;;;;;4.43;3.55;;;;;;;26.72;60.93;98956.28;4953420;29;20047;-84
2021/08/01 11:28:09;;;;;;;6.38;3.60;;;;;;;26.69;61.35;98959.41;4956717;29;20039;-85
2021/08/01 11:30:51;;;;;;;4.25;3.85;;;;;;;26.53;60.28;98958.03;4956558;29;20107;-85
2021/08/01 11:33:44;;;;;;;5.57;3.88;;;;;;;26.61;56.04;98947.91;4956576;29;20043;-84
2021/08/01 11:36:11;;;;;;;4.35;3.42;;;;;;;26.83;55.71;98964.47;4956637;29;20486;-84
2021/08/01 11:38:58;;;;;;;4.50;3.08;;;;;;;27.07;54.99;98965.63;4956570;29;20050;-84
2021/08/01 11:41:50;;;;;;;4.15;3.10;;;;;;;26.99;52.10;98971.16;4937681;29;20123;-83
2021/08/01 11:44:20;;;;;;;3.78;3.38;;;;;;;27.07;52.53;98967.47;4936498;29;20051;-83